sensor_id;sensor_type;location;lat;lon;timestamp;temperature;humidity
19665;DHT22;9980;51.020;7.772;2024-01-15T00:00:29;3.60;99.90
19665;DHT22;9980;51.020;7.772;2024-01-15T00:02:57;3.60;99.90
19665;DHT22;9980;51.020;7.772;2024-01-15T00:05:24;3.60;99.90
19665;DHT22;9980;51.020;7.772;2024-01-15T00:07:51;3.60;99.90
19665;DHT22;9980;51.020;7.772;2024-01-15T00:10:18;3.60;99.90
19665;DHT22;9980;51.020;7.772;2024-01-15T00:12:45;3.60;99.90
19665;DHT22;9980;51.020;7.772;2024-01-15T00:15:15;3.60;99.90
19665;DHT22;9980;51.020;7.772;2024-01-15T00:17:43;3.60;99.90
19665;DHT22;9980;51.020;7.772;2024-01-15T00:20:10;3.60;99.90
19665;DHT22;9980;51.020;7.772;2024-01-15T00:22:37;3.60;99.90
19665;DHT22;9980;51.020;7.772;2024-01-15T00:25:04;3.60;99.90
19665;DHT22;9980;51.020;7.772;2024-01-15T00:27:31;3.50;99.90
19665;DHT22;9980;51.020;7.772;2024-01-15T00:29:58;3.60;99.90
19665;DHT22;9980;51.020;7.772;2024-01-15T00:32:26;3.60;99.90
19665;DHT22;9980;51.020;7.772;2024-01-15T00:34:52;3.60;99.90
19665;DHT22;9980;51.020;7.772;2024-01-15T00:37:19;3.60;99.90
19665;DHT22;9980;51.020;7.772;2024-01-15T00:39:46;3.60;99.90
19665;DHT22;9980;51.020;7.772;2024-01-15T00:42:13;3.60;99.90
19665;DHT22;9980;51.020;7.772;2024-01-15T00:44:40;3.60;99.90
19665;DHT22;9980;51.020;7.772;2024-01-15T00:47:08;3.60;99.90
19665;DHT22;9980;51.020;7.772;2024-01-15T00:49:35;3.60;99.90
19665;DHT22;9980;51.020;7.772;2024-01-15T00:52:02;3.60;99.90
19665;DHT22;9980;51.020;7.772;2024-01-15T00:54:29;3.60;99.90
19665;DHT22;9980;51.020;7.772;2024-01-15T00:56:57;3.60;99.90
19665;DHT22;9980;51.020;7.772;2024-01-15T00:59:24;3.60;99.90
19665;DHT22;9980;51.020;7.772;2024-01-15T01:01:51;3.60;99.90
19665;DHT22;9980;51.020;7.772;2024-01-15T01:04:18;3.60;99.90
19665;DHT22;9980;51.020;7.772;2024-01-15T01:06:45;3.60;99.90
19665;DHT22;9980;51.020;7.772;2024-01-15T01:09:12;3.60;99.90
19665;DHT22;9980;51.020;7.772;2024-01-15T01:11:39;3.70;99.90
19665;DHT22;9980;51.020;7.772;2024-01-15T01:14:06;3.60;99.90
19665;DHT22;9980;51.020;7.772;2024-01-15T01:16:33;3.60;99.90
19665;DHT22;9980;51.020;7.772;2024-01-15T01:19:06;3.70;99.90
19665;DHT22;9980;51.020;7.772;2024-01-15T01:21:34;3.60;99.90
19665;DHT22;9980;51.020;7.772;2024-01-15T01:24:01;3.70;99.90
19665;DHT22;9980;51.020;7.772;2024-01-15T01:26:28;3.70;99.90
19665;DHT22;9980;51.020;7.772;2024-01-15T01:28:55;3.70;99.90
19665;DHT22;9980;51.020;7.772;2024-01-15T01:31:23;3.70;99.90
19665;DHT22;9980;51.020;7.772;2024-01-15T01:33:51;3.60;99.90
19665;DHT22;9980;51.020;7.772;2024-01-15T01:36:18;3.70;99.90
19665;DHT22;9980;51.020;7.772;2024-01-15T01:38:45;3.70;99.90
19665;DHT22;9980;51.020;7.772;2024-01-15T01:41:12;3.60;99.90
19665;DHT22;9980;51.020;7.772;2024-01-15T01:43:39;3.70;99.90
19665;DHT22;9980;51.020;7.772;2024-01-15T01:46:06;3.70;99.90
19665;DHT22;9980;51.020;7.772;2024-01-15T01:48:35;3.70;99.90
19665;DHT22;9980;51.020;7.772;2024-01-15T01:51:04;3.70;99.90
19665;DHT22;9980;51.020;7.772;2024-01-15T01:53:33;3.70;99.90
19665;DHT22;9980;51.020;7.772;2024-01-15T01:56:02;3.70;99.90
19665;DHT22;9980;51.020;7.772;2024-01-15T01:58:32;3.70;99.90
19665;DHT22;9980;51.020;7.772;2024-01-15T02:00:59;3.70;99.90
19665;DHT22;9980;51.020;7.772;2024-01-15T02:03:27;3.70;99.90
19665;DHT22;9980;51.020;7.772;2024-01-15T02:05:55;3.70;99.90
19665;DHT22;9980;51.020;7.772;2024-01-15T02:08:23;3.70;99.90
19665;DHT22;9980;51.020;7.772;2024-01-15T02:10:50;3.70;99.90
19665;DHT22;9980;51.020;7.772;2024-01-15T02:13:17;3.70;99.90
19665;DHT22;9980;51.020;7.772;2024-01-15T02:15:45;3.70;99.90
19665;DHT22;9980;51.020;7.772;2024-01-15T02:18:12;3.70;99.90
19665;DHT22;9980;51.020;7.772;2024-01-15T02:20:40;3.70;99.90
19665;DHT22;9980;51.020;7.772;2024-01-15T02:23:12;3.70;99.90
19665;DHT22;9980;51.020;7.772;2024-01-15T02:25:42;3.70;99.90
19665;DHT22;9980;51.020;7.772;2024-01-15T02:28:17;3.70;99.90
19665;DHT22;9980;51.020;7.772;2024-01-15T02:30:44;3.70;99.90
19665;DHT22;9980;51.020;7.772;2024-01-15T02:33:12;3.70;99.90
19665;DHT22;9980;51.020;7.772;2024-01-15T02:35:40;3.70;99.90
19665;DHT22;9980;51.020;7.772;2024-01-15T02:38:07;3.70;99.90
19665;DHT22;9980;51.020;7.772;2024-01-15T02:40:35;3.70;99.90
19665;DHT22;9980;51.020;7.772;2024-01-15T02:43:02;3.70;99.90
19665;DHT22;9980;51.020;7.772;2024-01-15T02:45:30;3.70;99.90
19665;DHT22;9980;51.020;7.772;2024-01-15T02:47:57;3.70;99.90
19665;DHT22;9980;51.020;7.772;2024-01-15T02:50:24;3.70;99.90
19665;DHT22;9980;51.020;7.772;2024-01-15T02:52:51;3.70;99.90
19665;DHT22;9980;51.020;7.772;2024-01-15T02:55:19;3.70;99.90
19665;DHT22;9980;51.020;7.772;2024-01-15T02:57:46;3.70;99.90
19665;DHT22;9980;51.020;7.772;2024-01-15T03:00:13;3.70;99.90
19665;DHT22;9980;51.020;7.772;2024-01-15T03:02:41;3.70;99.90
19665;DHT22;9980;51.020;7.772;2024-01-15T03:05:14;3.70;99.90
19665;DHT22;9980;51.020;7.772;2024-01-15T03:07:41;3.70;99.90
19665;DHT22;9980;51.020;7.772;2024-01-15T03:10:09;3.80;99.90
19665;DHT22;9980;51.020;7.772;2024-01-15T03:12:36;3.80;99.90
19665;DHT22;9980;51.020;7.772;2024-01-15T03:15:04;3.80;99.90
19665;DHT22;9980;51.020;7.772;2024-01-15T03:17:31;3.80;99.90
19665;DHT22;9980;51.020;7.772;2024-01-15T03:19:58;3.80;99.90
19665;DHT22;9980;51.020;7.772;2024-01-15T03:22:25;3.80;99.90
19665;DHT22;9980;51.020;7.772;2024-01-15T03:24:53;3.80;99.90
19665;DHT22;9980;51.020;7.772;2024-01-15T03:27:20;3.80;99.90
19665;DHT22;9980;51.020;7.772;2024-01-15T03:29:47;3.80;99.90
19665;DHT22;9980;51.020;7.772;2024-01-15T03:32:14;3.70;99.90
19665;DHT22;9980;51.020;7.772;2024-01-15T03:34:42;3.80;99.90
19665;DHT22;9980;51.020;7.772;2024-01-15T03:37:09;3.70;99.90
19665;DHT22;9980;51.020;7.772;2024-01-15T03:39:36;3.80;99.90
19665;DHT22;9980;51.020;7.772;2024-01-15T03:42:03;3.80;99.90
19665;DHT22;9980;51.020;7.772;2024-01-15T03:44:31;3.80;99.90
19665;DHT22;9980;51.020;7.772;2024-01-15T03:46:58;3.80;99.90
19665;DHT22;9980;51.020;7.772;2024-01-15T03:49:25;3.80;99.90
19665;DHT22;9980;51.020;7.772;2024-01-15T03:51:52;3.80;99.90
19665;DHT22;9980;51.020;7.772;2024-01-15T03:54:19;3.70;99.90
19665;DHT22;9980;51.020;7.772;2024-01-15T03:56:47;3.80;99.90
19665;DHT22;9980;51.020;7.772;2024-01-15T03:59:13;3.70;99.90
19665;DHT22;9980;51.020;7.772;2024-01-15T04:01:40;3.70;99.90
19665;DHT22;9980;51.020;7.772;2024-01-15T04:04:07;3.80;99.90
19665;DHT22;9980;51.020;7.772;2024-01-15T04:06:35;3.80;99.90
19665;DHT22;9980;51.020;7.772;2024-01-15T04:09:02;3.80;99.90
19665;DHT22;9980;51.020;7.772;2024-01-15T04:11:29;3.80;99.90
19665;DHT22;9980;51.020;7.772;2024-01-15T04:13:56;3.80;99.90
19665;DHT22;9980;51.020;7.772;2024-01-15T04:16:23;3.80;99.90
19665;DHT22;9980;51.020;7.772;2024-01-15T04:18:50;3.70;99.90
19665;DHT22;9980;51.020;7.772;2024-01-15T04:21:17;3.80;99.90
19665;DHT22;9980;51.020;7.772;2024-01-15T04:23:45;3.80;99.90
19665;DHT22;9980;51.020;7.772;2024-01-15T04:26:12;3.80;99.90
19665;DHT22;9980;51.020;7.772;2024-01-15T04:28:39;3.80;99.90
19665;DHT22;9980;51.020;7.772;2024-01-15T04:31:07;3.80;99.90
19665;DHT22;9980;51.020;7.772;2024-01-15T04:33:34;3.80;99.90
19665;DHT22;9980;51.020;7.772;2024-01-15T04:36:03;3.80;99.90
19665;DHT22;9980;51.020;7.772;2024-01-15T04:38:30;3.80;99.90
19665;DHT22;9980;51.020;7.772;2024-01-15T04:40:59;3.80;99.90
19665;DHT22;9980;51.020;7.772;2024-01-15T04:43:25;3.80;99.90
19665;DHT22;9980;51.020;7.772;2024-01-15T04:45:52;3.80;99.90
19665;DHT22;9980;51.020;7.772;2024-01-15T04:48:19;3.80;99.90
19665;DHT22;9980;51.020;7.772;2024-01-15T04:50:46;3.80;99.90
19665;DHT22;9980;51.020;7.772;2024-01-15T04:53:14;3.80;99.90
19665;DHT22;9980;51.020;7.772;2024-01-15T04:55:41;3.80;99.90
19665;DHT22;9980;51.020;7.772;2024-01-15T04:58:08;3.80;99.90
19665;DHT22;9980;51.020;7.772;2024-01-15T05:00:37;3.80;99.90
19665;DHT22;9980;51.020;7.772;2024-01-15T05:03:04;3.80;99.90
19665;DHT22;9980;51.020;7.772;2024-01-15T05:05:31;3.80;99.90
19665;DHT22;9980;51.020;7.772;2024-01-15T05:07:58;3.80;99.90
19665;DHT22;9980;51.020;7.772;2024-01-15T05:10:25;3.80;99.90
19665;DHT22;9980;51.020;7.772;2024-01-15T05:12:52;3.80;99.90
19665;DHT22;9980;51.020;7.772;2024-01-15T05:15:19;3.80;99.90
19665;DHT22;9980;51.020;7.772;2024-01-15T05:17:46;3.80;99.90
19665;DHT22;9980;51.020;7.772;2024-01-15T05:20:13;3.80;99.90
19665;DHT22;9980;51.020;7.772;2024-01-15T05:22:41;3.80;99.90
19665;DHT22;9980;51.020;7.772;2024-01-15T05:25:08;3.80;99.90
19665;DHT22;9980;51.020;7.772;2024-01-15T05:27:35;3.80;99.90
19665;DHT22;9980;51.020;7.772;2024-01-15T05:30:02;3.80;99.90
19665;DHT22;9980;51.020;7.772;2024-01-15T05:32:29;3.80;99.90
19665;DHT22;9980;51.020;7.772;2024-01-15T05:34:56;3.80;99.90
19665;DHT22;9980;51.020;7.772;2024-01-15T05:37:23;3.80;99.90
19665;DHT22;9980;51.020;7.772;2024-01-15T05:39:50;3.80;99.90
19665;DHT22;9980;51.020;7.772;2024-01-15T05:42:17;3.80;99.90
19665;DHT22;9980;51.020;7.772;2024-01-15T05:44:44;3.80;99.90
19665;DHT22;9980;51.020;7.772;2024-01-15T05:47:11;3.80;99.90
19665;DHT22;9980;51.020;7.772;2024-01-15T05:49:38;3.80;99.90
19665;DHT22;9980;51.020;7.772;2024-01-15T05:52:05;3.80;99.90
19665;DHT22;9980;51.020;7.772;2024-01-15T05:54:32;3.80;99.90
19665;DHT22;9980;51.020;7.772;2024-01-15T05:56:59;3.80;99.90
19665;DHT22;9980;51.020;7.772;2024-01-15T05:59:26;3.80;99.90
19665;DHT22;9980;51.020;7.772;2024-01-15T06:01:53;3.80;99.90
19665;DHT22;9980;51.020;7.772;2024-01-15T06:04:20;3.80;99.90
19665;DHT22;9980;51.020;7.772;2024-01-15T06:06:47;3.80;99.90
19665;DHT22;9980;51.020;7.772;2024-01-15T06:09:14;3.80;99.90
19665;DHT22;9980;51.020;7.772;2024-01-15T06:11:41;3.80;99.90
19665;DHT22;9980;51.020;7.772;2024-01-15T06:14:08;3.80;99.90
19665;DHT22;9980;51.020;7.772;2024-01-15T06:16:35;3.80;99.90
19665;DHT22;9980;51.020;7.772;2024-01-15T06:19:02;3.80;99.90
19665;DHT22;9980;51.020;7.772;2024-01-15T06:21:29;3.80;99.90
19665;DHT22;9980;51.020;7.772;2024-01-15T06:23:56;3.80;99.90
19665;DHT22;9980;51.020;7.772;2024-01-15T06:26:23;3.80;99.90
19665;DHT22;9980;51.020;7.772;2024-01-15T06:28:51;3.90;99.90
19665;DHT22;9980;51.020;7.772;2024-01-15T06:31:18;3.80;99.90
19665;DHT22;9980;51.020;7.772;2024-01-15T06:33:45;3.80;99.90
19665;DHT22;9980;51.020;7.772;2024-01-15T06:36:15;3.80;99.90
19665;DHT22;9980;51.020;7.772;2024-01-15T06:38:45;3.90;99.90
19665;DHT22;9980;51.020;7.772;2024-01-15T06:41:12;3.90;99.90
19665;DHT22;9980;51.020;7.772;2024-01-15T06:43:39;3.90;99.90
19665;DHT22;9980;51.020;7.772;2024-01-15T06:46:06;3.90;99.90
19665;DHT22;9980;51.020;7.772;2024-01-15T06:48:34;3.90;99.90
19665;DHT22;9980;51.020;7.772;2024-01-15T06:51:02;3.90;99.90
19665;DHT22;9980;51.020;7.772;2024-01-15T06:53:28;3.90;99.90
19665;DHT22;9980;51.020;7.772;2024-01-15T06:55:55;3.90;99.90
19665;DHT22;9980;51.020;7.772;2024-01-15T06:58:23;3.90;99.90
19665;DHT22;9980;51.020;7.772;2024-01-15T07:00:50;3.90;99.90
19665;DHT22;9980;51.020;7.772;2024-01-15T07:03:17;3.90;99.90
19665;DHT22;9980;51.020;7.772;2024-01-15T07:05:44;3.90;99.90
19665;DHT22;9980;51.020;7.772;2024-01-15T07:08:11;3.90;99.90
19665;DHT22;9980;51.020;7.772;2024-01-15T07:10:38;3.90;99.90
19665;DHT22;9980;51.020;7.772;2024-01-15T07:13:05;3.90;99.90
19665;DHT22;9980;51.020;7.772;2024-01-15T07:15:32;3.90;99.90
19665;DHT22;9980;51.020;7.772;2024-01-15T07:17:59;3.90;99.90
19665;DHT22;9980;51.020;7.772;2024-01-15T07:20:26;3.90;99.90
19665;DHT22;9980;51.020;7.772;2024-01-15T07:22:53;3.90;99.90
19665;DHT22;9980;51.020;7.772;2024-01-15T07:25:20;3.90;99.90
19665;DHT22;9980;51.020;7.772;2024-01-15T07:27:47;4.00;99.90
19665;DHT22;9980;51.020;7.772;2024-01-15T07:30:14;4.00;99.90
19665;DHT22;9980;51.020;7.772;2024-01-15T07:32:41;4.00;99.90
19665;DHT22;9980;51.020;7.772;2024-01-15T07:35:08;4.00;99.90
19665;DHT22;9980;51.020;7.772;2024-01-15T07:37:37;4.00;99.90
19665;DHT22;9980;51.020;7.772;2024-01-15T07:40:04;4.00;99.90
19665;DHT22;9980;51.020;7.772;2024-01-15T07:42:35;4.00;99.90
19665;DHT22;9980;51.020;7.772;2024-01-15T07:45:02;4.00;99.90
19665;DHT22;9980;51.020;7.772;2024-01-15T07:47:29;4.00;99.90
19665;DHT22;9980;51.020;7.772;2024-01-15T07:49:56;4.00;99.90
19665;DHT22;9980;51.020;7.772;2024-01-15T07:52:27;4.00;99.90
19665;DHT22;9980;51.020;7.772;2024-01-15T07:54:54;4.10;99.90
19665;DHT22;9980;51.020;7.772;2024-01-15T07:57:21;4.00;99.90
19665;DHT22;9980;51.020;7.772;2024-01-15T07:59:49;4.10;99.90
19665;DHT22;9980;51.020;7.772;2024-01-15T08:02:16;4.10;99.90
19665;DHT22;9980;51.020;7.772;2024-01-15T08:04:43;4.10;99.90
19665;DHT22;9980;51.020;7.772;2024-01-15T08:07:11;4.10;99.90
19665;DHT22;9980;51.020;7.772;2024-01-15T08:09:38;4.10;99.90
19665;DHT22;9980;51.020;7.772;2024-01-15T08:12:05;4.10;99.90
19665;DHT22;9980;51.020;7.772;2024-01-15T08:14:32;4.10;99.90
19665;DHT22;9980;51.020;7.772;2024-01-15T08:16:59;4.20;99.90
19665;DHT22;9980;51.020;7.772;2024-01-15T08:19:27;4.20;99.90
19665;DHT22;9980;51.020;7.772;2024-01-15T08:21:55;4.20;99.90
19665;DHT22;9980;51.020;7.772;2024-01-15T08:24:21;4.20;99.90
19665;DHT22;9980;51.020;7.772;2024-01-15T08:26:48;4.20;99.90
19665;DHT22;9980;51.020;7.772;2024-01-15T08:29:15;4.20;99.90
19665;DHT22;9980;51.020;7.772;2024-01-15T08:31:42;4.20;99.90
19665;DHT22;9980;51.020;7.772;2024-01-15T08:34:09;4.20;99.90
19665;DHT22;9980;51.020;7.772;2024-01-15T08:36:36;4.30;99.90
19665;DHT22;9980;51.020;7.772;2024-01-15T08:39:03;4.30;99.90
19665;DHT22;9980;51.020;7.772;2024-01-15T08:41:33;4.30;99.90
19665;DHT22;9980;51.020;7.772;2024-01-15T08:44:01;4.30;99.90
19665;DHT22;9980;51.020;7.772;2024-01-15T08:46:29;4.30;99.90
19665;DHT22;9980;51.020;7.772;2024-01-15T08:48:56;4.30;99.90
19665;DHT22;9980;51.020;7.772;2024-01-15T08:51:23;4.30;99.90
19665;DHT22;9980;51.020;7.772;2024-01-15T08:53:50;4.40;99.90
19665;DHT22;9980;51.020;7.772;2024-01-15T08:56:17;4.40;99.90
19665;DHT22;9980;51.020;7.772;2024-01-15T08:58:44;4.40;99.90
19665;DHT22;9980;51.020;7.772;2024-01-15T09:01:13;4.40;99.90
19665;DHT22;9980;51.020;7.772;2024-01-15T09:03:40;4.50;99.90
19665;DHT22;9980;51.020;7.772;2024-01-15T09:06:10;4.40;99.90
19665;DHT22;9980;51.020;7.772;2024-01-15T09:08:37;4.50;99.90
19665;DHT22;9980;51.020;7.772;2024-01-15T09:11:04;4.50;99.90
19665;DHT22;9980;51.020;7.772;2024-01-15T09:13:31;4.50;99.90
19665;DHT22;9980;51.020;7.772;2024-01-15T09:15:58;4.60;99.90
19665;DHT22;9980;51.020;7.772;2024-01-15T09:18:27;4.60;99.90
19665;DHT22;9980;51.020;7.772;2024-01-15T09:20:54;4.60;99.90
19665;DHT22;9980;51.020;7.772;2024-01-15T09:23:22;4.60;99.90
19665;DHT22;9980;51.020;7.772;2024-01-15T09:25:49;4.60;99.90
19665;DHT22;9980;51.020;7.772;2024-01-15T09:28:16;4.60;99.90
19665;DHT22;9980;51.020;7.772;2024-01-15T09:30:43;4.60;99.90
19665;DHT22;9980;51.020;7.772;2024-01-15T09:33:11;4.60;99.90
19665;DHT22;9980;51.020;7.772;2024-01-15T09:35:38;4.70;99.90
19665;DHT22;9980;51.020;7.772;2024-01-15T09:38:05;4.70;99.90
19665;DHT22;9980;51.020;7.772;2024-01-15T09:40:32;4.70;99.90
19665;DHT22;9980;51.020;7.772;2024-01-15T09:43:01;4.70;99.90
19665;DHT22;9980;51.020;7.772;2024-01-15T09:45:29;4.70;99.90
19665;DHT22;9980;51.020;7.772;2024-01-15T09:47:57;4.70;99.90
19665;DHT22;9980;51.020;7.772;2024-01-15T09:50:24;4.70;99.90
19665;DHT22;9980;51.020;7.772;2024-01-15T09:52:51;4.60;99.90
19665;DHT22;9980;51.020;7.772;2024-01-15T09:55:19;4.60;99.90
19665;DHT22;9980;51.020;7.772;2024-01-15T09:57:46;4.70;99.90
19665;DHT22;9980;51.020;7.772;2024-01-15T10:00:15;4.70;99.90
19665;DHT22;9980;51.020;7.772;2024-01-15T10:02:44;4.70;99.90
19665;DHT22;9980;51.020;7.772;2024-01-15T10:05:11;4.70;99.90
19665;DHT22;9980;51.020;7.772;2024-01-15T10:07:39;4.70;99.90
19665;DHT22;9980;51.020;7.772;2024-01-15T10:10:07;4.70;99.90
19665;DHT22;9980;51.020;7.772;2024-01-15T10:12:34;4.70;99.90
19665;DHT22;9980;51.020;7.772;2024-01-15T10:15:02;4.80;99.90
19665;DHT22;9980;51.020;7.772;2024-01-15T10:17:30;4.80;99.90
19665;DHT22;9980;51.020;7.772;2024-01-15T10:19:58;4.80;99.90
19665;DHT22;9980;51.020;7.772;2024-01-15T10:22:26;4.80;99.90
19665;DHT22;9980;51.020;7.772;2024-01-15T10:24:52;4.80;99.90
19665;DHT22;9980;51.020;7.772;2024-01-15T10:27:20;4.80;99.90
19665;DHT22;9980;51.020;7.772;2024-01-15T10:29:47;4.80;99.90
19665;DHT22;9980;51.020;7.772;2024-01-15T10:32:14;4.90;99.90
19665;DHT22;9980;51.020;7.772;2024-01-15T10:34:41;4.90;99.90
19665;DHT22;9980;51.020;7.772;2024-01-15T10:37:10;4.90;99.90
19665;DHT22;9980;51.020;7.772;2024-01-15T10:39:37;5.00;99.90
19665;DHT22;9980;51.020;7.772;2024-01-15T10:42:05;5.00;99.90
19665;DHT22;9980;51.020;7.772;2024-01-15T10:44:34;5.00;99.90
19665;DHT22;9980;51.020;7.772;2024-01-15T10:47:02;5.00;99.90
19665;DHT22;9980;51.020;7.772;2024-01-15T10:49:30;5.00;99.90
19665;DHT22;9980;51.020;7.772;2024-01-15T10:52:01;5.00;99.90
19665;DHT22;9980;51.020;7.772;2024-01-15T10:54:29;5.10;99.90
19665;DHT22;9980;51.020;7.772;2024-01-15T10:56:57;5.10;99.90
19665;DHT22;9980;51.020;7.772;2024-01-15T10:59:24;5.10;99.90
19665;DHT22;9980;51.020;7.772;2024-01-15T11:01:52;5.10;99.90
19665;DHT22;9980;51.020;7.772;2024-01-15T11:04:22;5.20;99.90
19665;DHT22;9980;51.020;7.772;2024-01-15T11:06:52;5.20;99.90
19665;DHT22;9980;51.020;7.772;2024-01-15T11:09:24;5.30;99.90
19665;DHT22;9980;51.020;7.772;2024-01-15T11:12:06;5.40;99.90
19665;DHT22;9980;51.020;7.772;2024-01-15T11:14:41;5.40;99.90
19665;DHT22;9980;51.020;7.772;2024-01-15T11:17:12;5.50;99.90
19665;DHT22;9980;51.020;7.772;2024-01-15T11:19:47;5.50;99.90
19665;DHT22;9980;51.020;7.772;2024-01-15T11:24:57;5.60;99.90
19665;DHT22;9980;51.020;7.772;2024-01-15T11:27:43;5.60;99.90
19665;DHT22;9980;51.020;7.772;2024-01-15T11:30:12;5.60;99.90
19665;DHT22;9980;51.020;7.772;2024-01-15T11:32:40;5.60;99.90
19665;DHT22;9980;51.020;7.772;2024-01-15T11:35:12;5.60;99.90
19665;DHT22;9980;51.020;7.772;2024-01-15T11:40:22;5.60;99.90
19665;DHT22;9980;51.020;7.772;2024-01-15T11:42:49;5.60;99.90
19665;DHT22;9980;51.020;7.772;2024-01-15T11:45:19;5.70;99.90
19665;DHT22;9980;51.020;7.772;2024-01-15T11:48:08;5.70;99.90
19665;DHT22;9980;51.020;7.772;2024-01-15T11:50:42;5.70;99.90
19665;DHT22;9980;51.020;7.772;2024-01-15T11:55:45;5.70;99.90
19665;DHT22;9980;51.020;7.772;2024-01-15T11:58:13;5.70;99.90
19665;DHT22;9980;51.020;7.772;2024-01-15T12:00:42;5.80;99.90
19665;DHT22;9980;51.020;7.772;2024-01-15T12:03:11;5.80;99.90
19665;DHT22;9980;51.020;7.772;2024-01-15T12:05:39;5.80;99.90
19665;DHT22;9980;51.020;7.772;2024-01-15T12:08:08;5.80;99.90
19665;DHT22;9980;51.020;7.772;2024-01-15T12:10:39;5.70;99.90
19665;DHT22;9980;51.020;7.772;2024-01-15T12:13:12;5.80;99.90
19665;DHT22;9980;51.020;7.772;2024-01-15T12:15:42;5.70;99.90
19665;DHT22;9980;51.020;7.772;2024-01-15T12:18:17;5.70;99.90
19665;DHT22;9980;51.020;7.772;2024-01-15T12:20:45;5.70;99.90
19665;DHT22;9980;51.020;7.772;2024-01-15T12:23:14;5.70;99.90
19665;DHT22;9980;51.020;7.772;2024-01-15T12:25:42;5.70;99.90
19665;DHT22;9980;51.020;7.772;2024-01-15T12:28:09;5.70;99.90
19665;DHT22;9980;51.020;7.772;2024-01-15T12:30:37;5.60;99.90
19665;DHT22;9980;51.020;7.772;2024-01-15T12:33:06;5.60;99.90
19665;DHT22;9980;51.020;7.772;2024-01-15T12:35:34;5.60;99.90
19665;DHT22;9980;51.020;7.772;2024-01-15T12:38:02;5.60;99.90
19665;DHT22;9980;51.020;7.772;2024-01-15T12:40:31;5.60;99.90
19665;DHT22;9980;51.020;7.772;2024-01-15T12:43:00;5.60;99.90
19665;DHT22;9980;51.020;7.772;2024-01-15T12:45:27;5.60;99.90
19665;DHT22;9980;51.020;7.772;2024-01-15T12:47:54;5.60;99.90
19665;DHT22;9980;51.020;7.772;2024-01-15T12:50:24;5.70;99.90
19665;DHT22;9980;51.020;7.772;2024-01-15T12:52:52;5.70;99.90
19665;DHT22;9980;51.020;7.772;2024-01-15T12:55:19;5.70;99.90
19665;DHT22;9980;51.020;7.772;2024-01-15T12:57:46;5.70;99.90
19665;DHT22;9980;51.020;7.772;2024-01-15T13:00:14;5.70;99.90
19665;DHT22;9980;51.020;7.772;2024-01-15T13:02:42;5.70;99.90
19665;DHT22;9980;51.020;7.772;2024-01-15T13:05:11;5.70;99.90
19665;DHT22;9980;51.020;7.772;2024-01-15T13:07:40;5.70;99.90
19665;DHT22;9980;51.020;7.772;2024-01-15T13:10:08;5.70;99.90
19665;DHT22;9980;51.020;7.772;2024-01-15T13:12:40;5.70;99.90
19665;DHT22;9980;51.020;7.772;2024-01-15T13:15:09;5.60;99.90
19665;DHT22;9980;51.020;7.772;2024-01-15T13:17:41;5.60;99.90
19665;DHT22;9980;51.020;7.772;2024-01-15T13:20:10;5.60;99.90
19665;DHT22;9980;51.020;7.772;2024-01-15T13:22:38;5.50;99.90
19665;DHT22;9980;51.020;7.772;2024-01-15T13:25:07;5.50;99.90
19665;DHT22;9980;51.020;7.772;2024-01-15T13:27:35;5.50;99.90
19665;DHT22;9980;51.020;7.772;2024-01-15T13:30:04;5.40;99.90
19665;DHT22;9980;51.020;7.772;2024-01-15T13:32:33;5.40;99.90
19665;DHT22;9980;51.020;7.772;2024-01-15T13:35:00;5.40;99.90
19665;DHT22;9980;51.020;7.772;2024-01-15T13:37:27;5.30;99.90
19665;DHT22;9980;51.020;7.772;2024-01-15T13:39:54;5.30;99.90
19665;DHT22;9980;51.020;7.772;2024-01-15T13:42:21;5.30;99.90
19665;DHT22;9980;51.020;7.772;2024-01-15T13:44:49;5.20;99.90
19665;DHT22;9980;51.020;7.772;2024-01-15T13:47:16;5.20;99.90
19665;DHT22;9980;51.020;7.772;2024-01-15T13:49:43;5.10;99.90
19665;DHT22;9980;51.020;7.772;2024-01-15T13:52:10;5.10;99.90
19665;DHT22;9980;51.020;7.772;2024-01-15T13:54:37;5.10;99.90
19665;DHT22;9980;51.020;7.772;2024-01-15T13:57:16;5.10;99.90
19665;DHT22;9980;51.020;7.772;2024-01-15T13:59:45;5.10;99.90
19665;DHT22;9980;51.020;7.772;2024-01-15T14:02:12;5.00;99.90
19665;DHT22;9980;51.020;7.772;2024-01-15T14:04:46;5.00;99.90
19665;DHT22;9980;51.020;7.772;2024-01-15T14:07:13;5.00;99.90
19665;DHT22;9980;51.020;7.772;2024-01-15T14:09:40;5.00;99.90
19665;DHT22;9980;51.020;7.772;2024-01-15T14:12:07;5.00;99.90
19665;DHT22;9980;51.020;7.772;2024-01-15T14:14:34;5.00;99.90
19665;DHT22;9980;51.020;7.772;2024-01-15T14:17:01;5.00;99.90
19665;DHT22;9980;51.020;7.772;2024-01-15T14:19:28;5.00;99.90
19665;DHT22;9980;51.020;7.772;2024-01-15T14:21:55;4.90;99.90
19665;DHT22;9980;51.020;7.772;2024-01-15T14:24:22;4.90;99.90
19665;DHT22;9980;51.020;7.772;2024-01-15T14:26:49;4.90;99.90
19665;DHT22;9980;51.020;7.772;2024-01-15T14:29:16;4.90;99.90
19665;DHT22;9980;51.020;7.772;2024-01-15T14:31:45;4.90;99.90
19665;DHT22;9980;51.020;7.772;2024-01-15T14:34:16;4.90;99.90
19665;DHT22;9980;51.020;7.772;2024-01-15T14:36:45;4.90;99.90
19665;DHT22;9980;51.020;7.772;2024-01-15T14:39:13;4.90;99.90
19665;DHT22;9980;51.020;7.772;2024-01-15T14:41:40;4.80;99.90
19665;DHT22;9980;51.020;7.772;2024-01-15T14:44:07;4.80;99.90
19665;DHT22;9980;51.020;7.772;2024-01-15T14:46:34;4.80;99.90
19665;DHT22;9980;51.020;7.772;2024-01-15T14:49:01;4.80;99.90
19665;DHT22;9980;51.020;7.772;2024-01-15T14:51:28;4.80;99.90
19665;DHT22;9980;51.020;7.772;2024-01-15T14:53:55;4.80;99.90
19665;DHT22;9980;51.020;7.772;2024-01-15T14:56:22;4.80;99.90
19665;DHT22;9980;51.020;7.772;2024-01-15T14:58:49;4.70;99.90
19665;DHT22;9980;51.020;7.772;2024-01-15T15:01:16;4.70;99.90
19665;DHT22;9980;51.020;7.772;2024-01-15T15:03:43;4.70;99.90
19665;DHT22;9980;51.020;7.772;2024-01-15T15:06:13;4.70;99.90
19665;DHT22;9980;51.020;7.772;2024-01-15T15:08:40;4.70;99.90
19665;DHT22;9980;51.020;7.772;2024-01-15T15:11:07;4.70;99.90
19665;DHT22;9980;51.020;7.772;2024-01-15T15:13:34;4.70;99.90
19665;DHT22;9980;51.020;7.772;2024-01-15T15:16:11;4.70;99.90
19665;DHT22;9980;51.020;7.772;2024-01-15T15:18:40;4.60;99.90
19665;DHT22;9980;51.020;7.772;2024-01-15T15:21:10;4.60;99.90
19665;DHT22;9980;51.020;7.772;2024-01-15T15:23:38;4.60;99.90
19665;DHT22;9980;51.020;7.772;2024-01-15T15:26:07;4.60;99.90
19665;DHT22;9980;51.020;7.772;2024-01-15T15:28:35;4.60;99.90
19665;DHT22;9980;51.020;7.772;2024-01-15T15:31:04;4.60;99.90
19665;DHT22;9980;51.020;7.772;2024-01-15T15:33:35;4.60;99.90
19665;DHT22;9980;51.020;7.772;2024-01-15T15:36:03;4.50;99.90
19665;DHT22;9980;51.020;7.772;2024-01-15T15:38:32;4.60;99.90
19665;DHT22;9980;51.020;7.772;2024-01-15T15:41:00;4.50;99.90
19665;DHT22;9980;51.020;7.772;2024-01-15T15:43:28;4.50;99.90
19665;DHT22;9980;51.020;7.772;2024-01-15T15:45:56;4.50;99.90
19665;DHT22;9980;51.020;7.772;2024-01-15T15:48:27;4.50;99.90
19665;DHT22;9980;51.020;7.772;2024-01-15T15:50:54;4.50;99.90
19665;DHT22;9980;51.020;7.772;2024-01-15T15:53:24;4.40;99.90
19665;DHT22;9980;51.020;7.772;2024-01-15T15:55:51;4.40;99.90
19665;DHT22;9980;51.020;7.772;2024-01-15T15:58:19;4.40;99.90
19665;DHT22;9980;51.020;7.772;2024-01-15T16:00:46;4.40;99.90
19665;DHT22;9980;51.020;7.772;2024-01-15T16:03:13;4.40;99.90
19665;DHT22;9980;51.020;7.772;2024-01-15T16:05:40;4.40;99.90
19665;DHT22;9980;51.020;7.772;2024-01-15T16:08:19;4.30;99.90
19665;DHT22;9980;51.020;7.772;2024-01-15T16:10:47;4.30;99.90
19665;DHT22;9980;51.020;7.772;2024-01-15T16:13:18;4.30;99.90